Kingston Norman Rogers Airport
CYGK : now visible

Airfield :











YOU CAN JOIN US ON...

 
LOGIN :

Register | Disclaimer

   EN    FR    IT 

 









Legend :    VFR   Marginal VFR   IFR   Intensive IFR   Very Intensive IFR
Visi :
Ceiling :
>= 8 km
>= 3000ft
5 to 8 km
1000 to 3000 ft
1500m to 5 km
500 to 1000 ft
800 to 1500m
200 to 500 ft
< 800m
< 200 ft
Symbols :   Thunderstorms  Fog  Heavy snow  Heavy precipitations  Wind > 20 kt






- Airport Elevation : 305 ft
- IATA code : YGK


CYGK - Kingston Norman Rogers

CURRENT METAR :
  • 252300Z 21004KT 15SM SCT250 21/17 A3004 RMK CI3 SLP173 DENSITY ALT 1000FT

EXPIRED METARs :
  • 252200Z 18004KT 15SM FEW035 SCT250 21/17 A3004 RMK CU1CI4 CU TR SLP173 DENSITY ALT 1000FT
  • 252100Z 17006KT 15SM FEW030 BKN250 21/17 A3005 RMK CU1CI4 CU TR SLP176 DENSITY ALT 1000FT

TAF TAF CYGK
Valid from the 25 at 20:00 until the 26 at 03:00 UTC


251938Z 2520/2603 19008KT P6SM FEW030 SCT220 RMK NXT FCST WILL BE ISSUED AT 261145Z
CZYZ FIR / North America



MET'MAP, your aeronautical weather chart ! - Copyright ORBIFLY December 2007 - Disclaimer

ORBIFLY MET'MAP TEAM :

Programming & Development : Alexandra Zaïnal
Concept & original design : Baudouin d'Aumeries
Assistance for programming : Marc-Olivier Méhu
Technical & hardware support : Manuel Goepfert

Contact : metmap@orbifly.com




SOURCES & CREDITS :

   NOAA       Earth
Advisory